This is the latest recevied weather packets stored in our database for station/object KE9DBJ-13. If no packets are shown the sender has not sent any weather packets the latest 10 day(s).
| Time | Temp. | Humidity | Pressure | Rain* | Wind** | Luminosity | Snow |
|---|---|---|---|---|---|---|---|
| 1777962003 | 15.56° C | 71% | 1006.2 hPa | 0 mm | - | - | - |
| 1777961402 | 15.56° C | 72% | 1006 hPa | 0 mm | - | - | - |
| 1777960803 | 15.56° C | 72% | 1005.9 hPa | 0 mm | - | - | - |
| 1777960202 | 15.56° C | 71% | 1005.7 hPa | 0 mm | - | - | - |
| 1777959602 | 15.56° C | 72% | 1005.7 hPa | 0 mm | - | - | - |
| 1777959002 | 15.56° C | 73% | 1005.7 hPa | 0 mm | - | - | - |
| 1777958402 | 15.56° C | 73% | 1005.6 hPa | 0 mm | - | - | - |
| 1777957802 | 15.56° C | 72% | 1005.5 hPa | 0 mm | - | - | - |
| 1777957202 | 15.56° C | 73% | 1005.6 hPa | 0 mm | - | - | - |
| 1777956602 | 15° C | 76% | 1005.8 hPa | 0 mm | - | - | - |
| 1777956002 | 14.44° C | 79% | 1005.9 hPa | 0 mm | - | - | - |
| 1777955402 | 14.44° C | 80% | 1006.2 hPa | 0 mm | - | - | - |
| 1777954803 | 14.44° C | 80% | 1006.3 hPa | 0 mm | - | - | - |
| 1777954203 | 14.44° C | 81% | 1006.3 hPa | 0 mm | - | - | - |
| 1777953603 | 14.44° C | 80% | 1006.3 hPa | 0 mm | - | - | - |
| 1777953003 | 15° C | 80% | 1006.4 hPa | 0 mm | - | - | - |
| 1777952403 | 15° C | 78% | 1006.3 hPa | 0 mm | - | - | - |
| 1777951803 | 15° C | 77% | 1006.2 hPa | 0 mm | - | - | - |
| 1777951202 | 15.56° C | 74% | 1006 hPa | 0 mm | - | - | - |
| 1777950602 | 15.56° C | 73% | 1006 hPa | 0 mm | - | - | - |
| 1777950002 | 15.56° C | 73% | 1005.8 hPa | 0 mm | - | - | - |
| 1777949402 | 16.11° C | 72% | 1005.7 hPa | 0 mm | - | - | - |
| 1777948802 | 16.11° C | 70% | 1005.5 hPa | 0 mm | - | - | - |
| 1777948202 | 16.67° C | 67% | 1005.3 hPa | 0 mm | - | - | - |
| 1777947602 | 16.67° C | 66% | 1005.3 hPa | 0 mm | - | - | - |
* Rain latest hour (hover to see other rain measurements)
** Current wind speed in m/s (hover to see current wind gust speed)